Time;durP1;ratioP1;P1;durP2;ratioP2;P2;SDS_P1;SDS_P2;PMS_P1;PMS_P2;Temp;Humidity;BMP_temperature;BMP_pressure;BME280_temperature;BME280_humidity;BME280_pressure;Samples;Min_cycle;Max_cycle;Signal;HPM_P1;HPM_P2
2024/04/22 00:00:23;;;;;;;;;;;;;;;2.02;100.00;101999.22;5525539;26;19995;-65
2024/04/22 00:02:49;;;;;;;;;;;;;;;2.00;100.00;101989.72;5526068;26;20263;-64
2024/04/22 00:05:14;;;;;;;;;;;;;;;1.91;100.00;101991.03;5528736;26;19995;-67
2024/04/22 00:07:39;;;;;;;;;;;;;;;1.88;100.00;101972.81;5526034;26;19939;-66
2024/04/22 00:10:05;;;;;;;;;;;;;;;1.83;100.00;101983.53;5525920;26;19996;-65
2024/04/22 00:12:30;;;;;;;;;;;;;;;1.80;100.00;101977.59;5463131;26;19931;-65
2024/04/22 00:14:56;;;;;;;;;;;;;;;1.76;100.00;101965.56;5526444;26;19951;-67
2024/04/22 00:17:21;;;;;;;;;;;;;;;1.76;100.00;101957.69;5526116;26;19928;-65
2024/04/22 00:19:46;;;;;;;;;;;;;;;1.76;100.00;101968.19;5529465;26;19959;-65
2024/04/22 00:22:13;;;;;;;;;;;;;;;1.74;100.00;101956.91;5494343;26;19931;-66
2024/04/22 00:24:38;;;;;;;;;;;;;;;1.71;100.00;101938.66;5526051;26;19964;-66
2024/04/22 00:27:04;;;;;;;;;;;;;;;1.70;100.00;101940.41;5527563;26;19928;-64
2024/04/22 00:29:29;;;;;;;;;;;;;;;1.67;100.00;101939.72;5528104;26;19931;-67
2024/04/22 00:31:54;;;;;;;;;;;;;;;1.67;100.00;101931.84;5526562;26;19933;-64
2024/04/22 00:34:20;;;;;;;;;;;;;;;1.67;100.00;101918.72;5492743;26;19934;-66
2024/04/22 00:36:45;;;;;;;;;;;;;;;1.62;100.00;101900.56;5526798;26;19939;-65
2024/04/22 00:39:13;;;;;;;;;;;;;;;1.62;100.00;101912.84;5525258;26;20332;-66
2024/04/22 00:41:39;;;;;;;;;;;;;;;1.66;100.00;101898.63;5525813;26;20306;-65
2024/04/22 00:44:04;;;;;;;;;;;;;;;1.69;100.00;101874.84;5526015;26;19928;-68
2024/04/22 00:46:29;;;;;;;;;;;;;;;1.73;100.00;101884.25;5525565;26;19930;-66
2024/04/22 00:48:55;;;;;;;;;;;;;;;1.76;100.00;101882.34;5526611;26;19928;-67
2024/04/22 00:51:20;;;;;;;;;;;;;;;1.82;100.00;101866.28;5495379;26;20000;-65
2024/04/22 00:53:46;;;;;;;;;;;;;;;1.83;100.00;101872.38;5493905;26;19927;-63
2024/04/22 00:56:12;;;;;;;;;;;;;;;1.88;100.00;101869.50;5493701;26;19931;-66
2024/04/22 00:58:38;;;;;;;;;;;;;;;1.92;100.00;101850.03;5493704;26;19955;-65
2024/04/22 01:01:05;;;;;;;;;;;;;;;1.88;100.00;101844.09;5525276;26;19931;-67
2024/04/22 01:03:32;;;;;;;;;;;;;;;1.89;100.00;101842.31;5493157;26;19939;-66
2024/04/22 01:05:57;;;;;;;;;;;;;;;1.91;100.00;101830.78;5525412;26;20331;-66
2024/04/22 01:08:23;;;;;;;;;;;;;;;1.95;100.00;101826.22;5527794;26;19939;-65
2024/04/22 01:10:48;;;;;;;;;;;;;;;1.95;100.00;101840.19;5525411;26;20371;-65
2024/04/22 01:13:13;;;;;;;;;;;;;;;1.99;100.00;101801.47;5492478;26;19938;-65
2024/04/22 01:15:39;;;;;;;;;;;;;;;2.00;100.00;101804.03;5524847;26;19927;-67
2024/04/22 01:18:04;;;;;;;;;;;;;;;1.96;100.00;101799.00;5492637;26;19953;-66
2024/04/22 01:20:30;;;;;;;;;;;;;;;1.99;100.00;101810.19;5525170;26;19996;-65
2024/04/22 01:22:55;;;;;;;;;;;;;;;2.00;100.00;101776.91;5528258;26;19934;-65
2024/04/22 01:25:21;;;;;;;;;;;;;;;2.01;100.00;101766.31;5493768;26;19927;-67
2024/04/22 01:27:47;;;;;;;;;;;;;;;2.02;100.00;101768.00;5525124;26;19999;-65
2024/04/22 01:30:13;;;;;;;;;;;;;;;2.05;100.00;101757.34;5492086;26;20368;-64
2024/04/22 01:32:38;;;;;;;;;;;;;;;2.08;100.00;101751.06;5525721;26;19928;-65
2024/04/22 01:35:04;;;;;;;;;;;;;;;2.08;100.00;101730.06;5523884;26;19935;-67
2024/04/22 01:37:31;;;;;;;;;;;;;;;2.11;100.00;101743.03;5524401;26;19927;-65
2024/04/22 01:39:57;;;;;;;;;;;;;;;2.15;100.00;101752.44;5526890;26;19931;-68
2024/04/22 01:42:23;;;;;;;;;;;;;;;2.19;100.00;101725.03;5524751;26;19927;-66
2024/04/22 01:44:49;;;;;;;;;;;;;;;2.25;100.00;101716.81;5524334;26;19995;-66
2024/04/22 01:47:14;;;;;;;;;;;;;;;2.31;100.00;101707.72;5523036;25;19927;-65
2024/04/22 01:49:39;;;;;;;;;;;;;;;2.37;100.00;101715.28;5538747;25;19928;-65
2024/04/22 01:52:05;;;;;;;;;;;;;;;2.41;100.00;101707.13;5496799;25;19934;-66
2024/04/22 01:54:31;;;;;;;;;;;;;;;2.45;100.00;101702.56;5551000;25;19928;-66
2024/04/22 01:56:57;;;;;;;;;;;;;;;2.44;100.00;101700.84;5518245;25;20441;-67
2024/04/22 01:59:23;;;;;;;;;;;;;;;2.45;100.00;101695.50;5533272;25;20415;-64
2024/04/22 02:01:48;;;;;;;;;;;;;;;2.45;100.00;101700.75;5475568;26;19935;-67
2024/04/22 02:04:14;;;;;;;;;;;;;;;2.47;100.00;101679.63;5515647;25;19926;-64
2024/04/22 02:06:39;;;;;;;;;;;;;;;2.51;100.00;101686.41;5547721;25;20281;-65
2024/04/22 02:09:04;;;;;;;;;;;;;;;2.51;100.00;101675.06;5552830;25;19934;-66
2024/04/22 02:11:29;;;;;;;;;;;;;;;2.50;100.00;101676.84;5547230;25;19935;-67
2024/04/22 02:13:55;;;;;;;;;;;;;;;2.51;100.00;101660.13;5554458;25;19927;-66
2024/04/22 02:16:20;;;;;;;;;;;;;;;2.51;100.00;101641.72;5550371;25;19934;-65
2024/04/22 02:18:45;;;;;;;;;;;;;;;2.48;100.00;101639.25;5548088;25;19938;-68
2024/04/22 02:21:11;;;;;;;;;;;;;;;2.50;100.00;101647.91;5527451;25;19938;-67
2024/04/22 02:23:36;;;;;;;;;;;;;;;2.53;100.00;101654.78;5539305;25;19927;-67
2024/04/22 02:26:02;;;;;;;;;;;;;;;2.55;100.00;101635.34;5494163;26;19935;-65
2024/04/22 02:28:28;;;;;;;;;;;;;;;2.52;100.00;101639.94;5508303;25;19994;-66
2024/04/22 02:30:53;;;;;;;;;;;;;;;2.53;100.00;101631.09;5538799;25;19934;-69
2024/04/22 02:33:19;;;;;;;;;;;;;;;2.48;100.00;101628.75;5551275;25;20352;-66
2024/04/22 02:35:44;;;;;;;;;;;;;;;2.54;100.00;101646.78;5541450;25;19934;-66
2024/04/22 02:38:11;;;;;;;;;;;;;;;2.53;100.00;101654.78;5491763;26;19927;-66
2024/04/22 02:40:36;;;;;;;;;;;;;;;2.53;100.00;101645.09;5560256;25;19942;-65
2024/04/22 02:43:02;;;;;;;;;;;;;;;2.44;100.00;101653.53;5564016;25;19927;-64
2024/04/22 02:45:27;;;;;;;;;;;;;;;2.41;100.00;101638.78;5561760;25;20046;-66
2024/04/22 02:47:53;;;;;;;;;;;;;;;2.44;100.00;101635.13;5566429;25;19927;-65
2024/04/22 02:50:18;;;;;;;;;;;;;;;2.46;100.00;101625.38;5565497;25;19927;-65
2024/04/22 02:52:43;;;;;;;;;;;;;;;2.48;100.00;101623.50;5564515;25;19954;-66
2024/04/22 02:55:09;;;;;;;;;;;;;;;2.48;100.00;101626.13;5564731;25;19933;-66
2024/04/22 02:57:34;;;;;;;;;;;;;;;2.48;100.00;101615.59;5566682;25;19934;-65
2024/04/22 03:00:00;;;;;;;;;;;;;;;2.45;100.00;101598.22;5565196;25;19927;-66
2024/04/22 03:02:25;;;;;;;;;;;;;;;2.46;100.00;101593.81;5531914;25;19934;-64
2024/04/22 03:04:50;;;;;;;;;;;;;;;2.40;100.00;101587.13;5565132;25;19927;-67
2024/04/22 03:07:16;;;;;;;;;;;;;;;2.35;100.00;101576.06;5564777;25;19927;-64
2024/04/22 03:09:43;;;;;;;;;;;;;;;2.35;100.00;101585.72;5564525;25;19939;-67
2024/04/22 03:12:14;;;;;;;;;;;;;;;2.33;100.00;101577.09;5531289;25;19930;-66
2024/04/22 03:14:39;;;;;;;;;;;;;;;2.26;100.00;101575.72;5568907;25;19938;-66
2024/04/22 03:17:05;;;;;;;;;;;;;;;2.27;100.00;101572.16;5564467;25;19934;-66
2024/04/22 03:19:31;;;;;;;;;;;;;;;2.29;100.00;101581.66;5564522;25;20378;-65
2024/04/22 03:21:56;;;;;;;;;;;;;;;2.29;100.00;101581.66;5564295;25;19931;-67
2024/04/22 03:24:21;;;;;;;;;;;;;;;2.27;100.00;101580.03;5531272;25;19927;-67
2024/04/22 03:26:47;;;;;;;;;;;;;;;2.22;100.00;101582.09;5529242;25;19930;-65
2024/04/22 03:29:12;;;;;;;;;;;;;;;2.18;100.00;101563.03;5548492;25;20307;-66
2024/04/22 03:31:38;;;;;;;;;;;;;;;2.23;100.00;101554.88;5554016;25;19994;-66
2024/04/22 03:34:03;;;;;;;;;;;;;;;2.26;100.00;101542.41;5563966;25;19926;-67
2024/04/22 03:36:30;;;;;;;;;;;;;;;2.23;100.00;101528.59;5529363;25;19939;-64
2024/04/22 03:38:59;;;;;;;;;;;;;;;2.23;100.00;101508.41;5526321;26;20371;-65
2024/04/22 03:41:27;;;;;;;;;;;;;;;2.26;100.00;101520.53;5526855;26;19927;-68
2024/04/22 03:43:53;;;;;;;;;;;;;;;2.30;100.00;101519.41;5494533;26;19931;-68
2024/04/22 03:51:46;;;;;;;;;;;;;;;2.37;100.00;101505.84;5493567;26;19927;-69
2024/04/22 03:54:11;;;;;;;;;;;;;;;2.43;100.00;101478.31;5525862;26;20375;-68
2024/04/22 03:56:36;;;;;;;;;;;;;;;2.48;100.00;101476.25;5525872;26;19934;-67
2024/04/22 03:59:01;;;;;;;;;;;;;;;2.54;100.00;101449.59;5526053;26;20282;-68
2024/04/22 04:01:27;;;;;;;;;;;;;;;2.60;100.00;101475.53;5500431;26;20297;-69
2024/04/22 04:03:52;;;;;;;;;;;;;;;2.69;100.00;101464.44;5526602;26;19927;-69
2024/04/22 04:06:17;;;;;;;;;;;;;;;2.77;100.00;101470.06;5526082;26;19938;-67
2024/04/22 04:08:45;;;;;;;;;;;;;;;2.77;100.00;101475.31;5493568;26;20351;-69
2024/04/22 04:11:15;;;;;;;;;;;;;;;2.74;100.00;101483.41;5525938;26;19995;-68
2024/04/22 04:13:46;;;;;;;;;;;;;;;2.74;100.00;101464.13;5526131;26;19928;-70
2024/04/22 04:16:11;;;;;;;;;;;;;;;2.77;100.00;101472.69;5531102;26;19996;-67
2024/04/22 04:18:37;;;;;;;;;;;;;;;2.79;100.00;101462.06;5528455;26;19935;-68
2024/04/22 04:21:03;;;;;;;;;;;;;;;2.80;100.00;101448.81;5462785;26;19996;-69
2024/04/22 04:23:28;;;;;;;;;;;;;;;2.85;100.00;101443.25;5525854;26;20394;-69
2024/04/22 04:25:53;;;;;;;;;;;;;;;2.93;100.00;101440.16;5496188;26;19939;-66
2024/04/22 04:28:19;;;;;;;;;;;;;;;2.97;100.00;101431.13;5526798;26;19995;-69
2024/04/22 04:30:52;;;;;;;;;;;;;;;2.99;100.00;101426.63;5493330;26;19935;-68
2024/04/22 04:33:18;;;;;;;;;;;;;;;3.02;100.00;101419.38;5535206;26;19939;-70
2024/04/22 04:35:44;;;;;;;;;;;;;;;3.01;100.00;101390.53;5527906;26;19927;-68
2024/04/22 04:38:11;;;;;;;;;;;;;;;3.02;100.00;101392.22;5533195;26;20282;-68
2024/04/22 04:40:39;;;;;;;;;;;;;;;3.04;100.00;101385.06;5531465;26;19972;-72
2024/04/22 04:43:04;;;;;;;;;;;;;;;2.91;100.00;101342.91;5535430;26;19934;-69
2024/04/22 04:45:30;;;;;;;;;;;;;;;3.13;100.00;101381.81;5532566;26;20363;-68
2024/04/22 04:47:55;;;;;;;;;;;;;;;3.20;100.00;101369.97;5540961;25;19946;-68
2024/04/22 04:50:20;;;;;;;;;;;;;;;3.24;100.00;101375.88;5469773;26;20554;-69
2024/04/22 04:52:45;;;;;;;;;;;;;;;3.23;100.00;101380.31;5493150;26;19996;-68
2024/04/22 04:55:11;;;;;;;;;;;;;;;3.22;100.00;101360.19;5493716;26;19927;-71
2024/04/22 04:57:36;;;;;;;;;;;;;;;3.24;100.00;101370.63;5525388;26;19935;-71
2024/04/22 05:00:02;;;;;;;;;;;;;;;3.24;100.00;101370.63;5524914;26;20394;-71
2024/04/22 05:02:28;;;;;;;;;;;;;;;3.24;100.00;101354.81;5525465;26;19930;-65
2024/04/22 05:04:54;;;;;;;;;;;;;;;3.23;100.00;101348.72;5531130;26;19936;-70
2024/04/22 05:07:19;;;;;;;;;;;;;;;3.29;100.00;101336.94;5492426;26;19995;-69
2024/04/22 05:09:44;;;;;;;;;;;;;;;3.31;100.00;101332.41;5524051;25;19934;-69
2024/04/22 05:12:10;;;;;;;;;;;;;;;3.29;100.00;101315.88;5496453;25;19956;-71
2024/04/22 05:14:35;;;;;;;;;;;;;;;3.30;100.00;101305.22;5531801;25;19980;-73
2024/04/22 05:17:00;;;;;;;;;;;;;;;3.31;100.00;101291.13;5510378;25;19946;-70
2024/04/22 05:19:26;;;;;;;;;;;;;;;3.34;100.00;101290.06;5544808;25;19935;-71
2024/04/22 05:21:51;;;;;;;;;;;;;;;3.36;100.00;101283.75;5509311;25;19927;-73
2024/04/22 05:24:18;;;;;;;;;;;;;;;3.39;100.00;101291.44;5511161;25;19938;-72
2024/04/22 05:26:44;;;;;;;;;;;;;;;3.34;100.00;101285.66;5543723;25;20385;-71
2024/04/22 05:29:09;;;;;;;;;;;;;;;3.32;100.00;101287.53;5514708;25;19927;-71
2024/04/22 05:31:34;;;;;;;;;;;;;;;3.33;100.00;101280.50;5542634;25;19952;-70
2024/04/22 05:36:51;;;;;;;;;;;;;;;3.30;100.00;101270.16;5542401;25;19939;-73
2024/04/22 05:39:16;;;;;;;;;;;;;;;3.27;100.00;101250.16;5545531;25;19927;-70
2024/04/22 05:41:41;;;;;;;;;;;;;;;3.20;100.00;101258.59;5510174;25;19933;-71
2024/04/22 05:44:07;;;;;;;;;;;;;;;3.15;100.00;101272.03;5535681;25;19931;-73
2024/04/22 05:46:32;;;;;;;;;;;;;;;3.10;100.00;101246.03;5543141;25;20010;-70
2024/04/22 05:48:58;;;;;;;;;;;;;;;3.10;100.00;101240.75;5548364;25;19927;-71
2024/04/22 05:51:23;;;;;;;;;;;;;;;3.13;100.00;101233.59;5504920;26;19936;-70
2024/04/22 05:53:48;;;;;;;;;;;;;;;3.19;100.00;101249.00;5516298;25;19927;-68
2024/04/22 05:56:14;;;;;;;;;;;;;;;3.24;100.00;101229.31;5525206;25;20278;-71
2024/04/22 05:58:39;;;;;;;;;;;;;;;3.32;100.00;101229.63;5522286;26;20278;-68
2024/04/22 06:01:04;;;;;;;;;;;;;;;3.34;100.00;101235.63;5522116;26;20302;-69
2024/04/22 06:03:30;;;;;;;;;;;;;;;3.41;100.00;101230.78;5522212;26;20335;-69
2024/04/22 06:05:55;;;;;;;;;;;;;;;3.46;100.00;101206.75;5526724;26;19938;-70
2024/04/22 06:08:20;;;;;;;;;;;;;;;3.49;100.00;101215.31;5491661;26;19927;-68
2024/04/22 06:10:46;;;;;;;;;;;;;;;3.56;100.00;101223.63;5525608;26;20338;-68
2024/04/22 06:13:11;;;;;;;;;;;;;;;3.63;100.00;101203.81;5526763;26;19927;-68
2024/04/22 06:15:36;;;;;;;;;;;;;;;3.70;100.00;101219.06;5527434;26;19938;-68
2024/04/22 06:18:02;;;;;;;;;;;;;;;3.77;100.00;101226.56;5529088;26;19927;-70
2024/04/22 06:20:27;;;;;;;;;;;;;;;3.81;100.00;101222.75;5531542;26;19935;-68
2024/04/22 06:22:52;;;;;;;;;;;;;;;3.77;100.00;101216.03;5533487;26;20473;-68
2024/04/22 06:25:18;;;;;;;;;;;;;;;3.77;100.00;101206.34;5501107;26;19973;-69
2024/04/22 06:27:43;;;;;;;;;;;;;;;3.78;100.00;101212.44;5531285;26;20382;-67
2024/04/22 06:30:08;;;;;;;;;;;;;;;3.76;100.00;101206.41;5532742;26;19938;-70
2024/04/22 06:32:34;;;;;;;;;;;;;;;3.79;100.00;101198.31;5534780;26;19928;-69
2024/04/22 06:35:03;;;;;;;;;;;;;;;3.82;100.00;101185.78;5531492;26;19955;-68
2024/04/22 06:37:30;;;;;;;;;;;;;;;3.80;100.00;101198.22;5499942;26;19927;-69
2024/04/22 06:39:55;;;;;;;;;;;;;;;3.76;100.00;101187.97;5534112;26;19935;-68
2024/04/22 06:42:21;;;;;;;;;;;;;;;3.78;100.00;101192.22;5533654;26;19927;-69
2024/04/22 06:44:47;;;;;;;;;;;;;;;3.83;100.00;101192.72;5530505;26;19927;-69
2024/04/22 06:47:12;;;;;;;;;;;;;;;3.90;100.00;101193.97;5530776;26;19931;-69
2024/04/22 06:49:38;;;;;;;;;;;;;;;3.92;100.00;101194.69;5530739;26;19935;-68
2024/04/22 06:52:04;;;;;;;;;;;;;;;3.95;100.00;101212.06;5535975;26;19928;-69
2024/04/22 06:54:29;;;;;;;;;;;;;;;3.88;100.00;101203.78;5542957;26;19952;-70
2024/04/22 06:56:55;;;;;;;;;;;;;;;3.83;100.00;101213.81;5543387;26;19927;-68
2024/04/22 06:59:20;;;;;;;;;;;;;;;3.84;100.00;101202.31;5542028;26;19948;-68
2024/04/22 07:01:45;;;;;;;;;;;;;;;3.86;100.00;101189.88;5541759;26;19931;-68
2024/04/22 07:04:11;;;;;;;;;;;;;;;3.86;100.00;101194.28;5535690;26;19947;-69
2024/04/22 07:06:36;;;;;;;;;;;;;;;3.87;100.00;101181.00;5536803;26;19927;-69
2024/04/22 07:09:09;;;;;;;;;;;;;;;3.85;100.00;101174.16;5537635;26;19928;-70
2024/04/22 07:11:35;;;;;;;;;;;;;;;3.87;100.00;101169.63;5540042;26;20252;-71
2024/04/22 07:14:01;;;;;;;;;;;;;;;3.87;100.00;101181.00;5475974;26;19932;-69
2024/04/22 07:16:27;;;;;;;;;;;;;;;3.88;100.00;101161.63;5504040;26;19931;-70
2024/04/22 07:18:52;;;;;;;;;;;;;;;3.95;100.00;101189.19;5535556;26;19935;-70
2024/04/22 07:21:18;;;;;;;;;;;;;;;3.98;100.00;101196.03;5532917;26;20457;-70
2024/04/22 07:23:43;;;;;;;;;;;;;;;3.95;100.00;101183.94;5498794;26;19928;-69
2024/04/22 07:26:09;;;;;;;;;;;;;;;3.90;100.00;101191.31;5525956;26;20367;-70
2024/04/22 07:28:35;;;;;;;;;;;;;;;3.84;100.00;101190.94;5525228;26;19986;-68
2024/04/22 07:31:01;;;;;;;;;;;;;;;3.79;100.00;101183.34;5525952;26;20271;-71
2024/04/22 07:33:27;;;;;;;;;;;;;;;3.70;100.00;101178.72;5526760;26;19931;-71
2024/04/22 07:35:55;;;;;;;;;;;;;;;3.61;100.00;101184.63;5528569;26;20390;-71
2024/04/22 07:38:25;;;;;;;;;;;;;;;3.43;100.00;101166.53;5494883;26;19927;-72
2024/04/22 07:40:52;;;;;;;;;;;;;;;3.34;100.00;101168.97;5526506;26;19928;-72
2024/04/22 07:43:17;;;;;;;;;;;;;;;3.28;100.00;101174.66;5525720;26;19936;-71
2024/04/22 07:45:42;;;;;;;;;;;;;;;3.28;100.00;101161.50;5525041;26;19935;-72
2024/04/22 07:48:09;;;;;;;;;;;;;;;3.26;100.00;101152.88;5524878;26;19932;-69
2024/04/22 07:50:34;;;;;;;;;;;;;;;3.23;100.00;101153.94;5524608;26;19935;-69
2024/04/22 07:53:00;;;;;;;;;;;;;;;3.18;100.00;101144.63;5524447;26;19931;-69
2024/04/22 07:55:25;;;;;;;;;;;;;;;3.15;100.00;101140.44;5524557;26;19927;-70
2024/04/22 07:57:52;;;;;;;;;;;;;;;3.10;100.00;101138.13;5528478;26;20378;-68
2024/04/22 08:00:19;;;;;;;;;;;;;;;3.12;100.00;101140.66;5526352;26;19928;-69
2024/04/22 08:02:44;;;;;;;;;;;;;;;3.10;100.00;101130.22;5526663;26;19995;-69
2024/04/22 08:05:10;;;;;;;;;;;;;;;3.12;100.00;101130.13;5494791;26;20366;-69
2024/04/22 08:07:38;;;;;;;;;;;;;;;3.09;100.00;101122.44;5526531;26;19935;-69
2024/04/22 08:10:04;;;;;;;;;;;;;;;3.06;100.00;101120.03;5527011;26;19934;-70
2024/04/22 08:12:29;;;;;;;;;;;;;;;3.07;100.00;101113.81;5528331;26;19927;-68
2024/04/22 08:14:55;;;;;;;;;;;;;;;3.06;100.00;101088.44;5527683;26;20401;-68
2024/04/22 08:17:20;;;;;;;;;;;;;;;3.07;100.00;101080.44;5526414;26;19928;-68
2024/04/22 08:19:46;;;;;;;;;;;;;;;3.09;100.00;101077.72;5526301;26;19934;-70
2024/04/22 08:22:14;;;;;;;;;;;;;;;3.13;100.00;101080.97;5493602;26;19995;-71
2024/04/22 08:24:40;;;;;;;;;;;;;;;3.09;100.00;101073.28;5525508;26;19928;-70
2024/04/22 08:27:07;;;;;;;;;;;;;;;3.10;100.00;101066.22;5526608;26;20380;-70
2024/04/22 08:29:32;;;;;;;;;;;;;;;3.10;100.00;101055.69;5528062;26;19927;-69
2024/04/22 08:31:57;;;;;;;;;;;;;;;3.10;100.00;101053.91;5526202;26;19938;-70
2024/04/22 08:34:23;;;;;;;;;;;;;;;3.13;100.00;101037.06;5526200;26;19934;-70
2024/04/22 08:36:48;;;;;;;;;;;;;;;3.18;100.00;101034.97;5525703;26;19927;-69
2024/04/22 08:39:16;;;;;;;;;;;;;;;3.19;100.00;101028.75;5525632;26;19996;-69
2024/04/22 08:41:41;;;;;;;;;;;;;;;3.22;100.00;101010.13;5525503;26;19935;-69
2024/04/22 08:44:08;;;;;;;;;;;;;;;3.28;100.00;101009.66;5495023;26;19996;-69
2024/04/22 08:46:33;;;;;;;;;;;;;;;3.31;100.00;100996.28;5526034;26;20314;-69
2024/04/22 08:48:59;;;;;;;;;;;;;;;3.32;100.00;100999.75;5526097;26;19939;-68
2024/04/22 08:51:25;;;;;;;;;;;;;;;3.31;100.00;100987.53;5525703;26;20367;-68
2024/04/22 08:53:53;;;;;;;;;;;;;;;3.35;100.00;100974.06;5492839;26;19927;-70
2024/04/22 08:56:22;;;;;;;;;;;;;;;3.40;100.00;100979.81;5525378;26;19934;-70
2024/04/22 08:58:47;;;;;;;;;;;;;;;3.45;100.00;100990.00;5527698;26;19934;-70
2024/04/22 09:01:12;;;;;;;;;;;;;;;3.47;100.00;100993.41;5526702;26;19928;-70
2024/04/22 09:03:38;;;;;;;;;;;;;;;3.50;100.00;101014.25;5525747;26;19931;-68
2024/04/22 09:06:03;;;;;;;;;;;;;;;3.54;100.00;100988.53;5462788;26;20274;-70
2024/04/22 09:08:28;;;;;;;;;;;;;;;3.63;100.00;100977.31;5525392;26;19933;-70
2024/04/22 09:10:54;;;;;;;;;;;;;;;3.81;100.00;100952.25;5493162;26;19999;-69
2024/04/22 09:13:20;;;;;;;;;;;;;;;3.99;100.00;100948.22;5526070;26;19973;-70
2024/04/22 09:15:45;;;;;;;;;;;;;;;4.06;100.00;100930.16;5528564;26;20018;-69
2024/04/22 09:18:11;;;;;;;;;;;;;;;4.06;100.00;100945.13;5525162;26;19935;-71
2024/04/22 09:20:37;;;;;;;;;;;;;;;4.07;100.00;100960.84;5524806;26;19927;-71
2024/04/22 09:23:03;;;;;;;;;;;;;;;4.08;100.00;100925.63;5492361;26;19927;-68
2024/04/22 09:25:28;;;;;;;;;;;;;;;4.09;100.00;100916.75;5525375;26;19935;-69
2024/04/22 09:27:54;;;;;;;;;;;;;;;4.10;100.00;100917.59;5493381;26;19994;-69
2024/04/22 09:30:21;;;;;;;;;;;;;;;4.12;100.00;100931.50;5497875;26;19939;-68
2024/04/22 09:32:51;;;;;;;;;;;;;;;4.12;100.00;100934.13;5493120;26;19934;-70
2024/04/22 09:35:17;;;;;;;;;;;;;;;4.23;100.00;100949.94;5531262;26;20453;-68
2024/04/22 09:37:44;;;;;;;;;;;;;;;4.38;100.00;100954.06;5532420;26;19931;-69
2024/04/22 09:40:10;;;;;;;;;;;;;;;4.57;100.00;100942.91;5500269;26;19986;-70
2024/04/22 09:42:37;;;;;;;;;;;;;;;4.76;100.00;100947.59;5526195;26;20439;-69
2024/04/22 09:45:02;;;;;;;;;;;;;;;5.03;100.00;100949.84;5523123;26;19932;-69
2024/04/22 09:47:29;;;;;;;;;;;;;;;5.21;100.00;100946.59;5526902;25;19928;-69
2024/04/22 09:49:56;;;;;;;;;;;;;;;5.37;100.00;100938.25;5492822;26;20328;-68
2024/04/22 09:52:22;;;;;;;;;;;;;;;5.68;100.00;100918.06;5525857;26;19995;-69
2024/04/22 09:54:47;;;;;;;;;;;;;;;5.87;100.00;100918.22;5525211;26;19943;-71
2024/04/22 09:57:13;;;;;;;;;;;;;;;5.92;100.00;100907.28;5529307;26;19934;-74
2024/04/22 09:59:38;;;;;;;;;;;;;;;5.93;100.00;100908.13;5497046;26;19927;-71
2024/04/22 10:02:04;;;;;;;;;;;;;;;5.90;100.00;100902.13;5535775;26;19935;-70
2024/04/22 10:04:30;;;;;;;;;;;;;;;5.93;100.00;100913.41;5531853;26;19931;-72
2024/04/22 10:06:56;;;;;;;;;;;;;;;5.89;100.00;100912.81;5531049;25;20370;-76
2024/04/22 10:09:21;;;;;;;;;;;;;;;5.88;100.00;100933.13;5496789;26;19928;-70
2024/04/22 10:11:47;;;;;;;;;;;;;;;5.85;100.00;100917.53;5528595;26;19927;-70
2024/04/22 10:14:16;;;;;;;;;;;;;;;6.02;100.00;100897.59;5529766;26;19928;-72
2024/04/22 10:16:51;;;;;;;;;;;;;;;6.14;100.00;100893.09;5533611;26;19935;-71
2024/04/22 10:19:17;;;;;;;;;;;;;;;6.19;100.00;100890.91;5534577;25;19934;-68
2024/04/22 10:21:42;;;;;;;;;;;;;;;6.30;100.00;100880.22;5513764;26;19927;-69
2024/04/22 10:24:08;;;;;;;;;;;;;;;6.52;100.00;100868.63;5529296;26;19959;-69
2024/04/22 10:26:39;;;;;;;;;;;;;;;6.71;100.00;100862.56;5495606;26;19943;-75
2024/04/22 10:29:04;;;;;;;;;;;;;;;6.84;100.00;100863.16;5533668;26;19928;-69
2024/04/22 10:31:31;;;;;;;;;;;;;;;7.00;100.00;100866.13;5541544;26;19928;-69
2024/04/22 10:33:58;;;;;;;;;;;;;;;7.04;100.00;100864.88;5471793;26;19934;-70
2024/04/22 10:36:25;;;;;;;;;;;;;;;7.10;100.00;100874.91;5489225;26;19940;-71
2024/04/22 10:38:51;;;;;;;;;;;;;;;7.15;100.00;100854.13;5512643;26;20403;-70
2024/04/22 10:41:16;;;;;;;;;;;;;;;7.28;100.00;100867.13;5527491;26;19927;-67
2024/04/22 10:43:45;;;;;;;;;;;;;;;7.35;100.00;100859.47;5524333;26;19935;-70
2024/04/22 10:46:10;;;;;;;;;;;;;;;7.49;100.00;100848.41;5524198;26;19995;-69
2024/04/22 10:48:36;;;;;;;;;;;;;;;7.60;100.00;100866.00;5518578;25;20343;-70
2024/04/22 10:51:02;;;;;;;;;;;;;;;7.78;100.00;100859.81;5487152;26;19935;-71
2024/04/22 10:53:27;;;;;;;;;;;;;;;8.06;100.00;100852.78;5489232;26;19992;-66
2024/04/22 10:55:52;;;;;;;;;;;;;;;8.14;100.00;100859.22;5456747;26;19996;-69
2024/04/22 10:58:18;;;;;;;;;;;;;;;7.88;100.00;100848.38;5496190;26;19927;-68
2024/04/22 11:00:44;;;;;;;;;;;;;;;7.78;100.00;100833.31;5525524;25;19928;-71
2024/04/22 11:03:10;;;;;;;;;;;;;;;7.84;100.00;100841.69;5531079;25;19934;-71
2024/04/22 11:05:35;;;;;;;;;;;;;;;7.82;100.00;100838.34;5524752;26;19931;-71
2024/04/22 11:08:01;;;;;;;;;;;;;;;7.87;100.00;100841.41;5523375;26;20339;-68
2024/04/22 11:10:28;;;;;;;;;;;;;;;8.08;100.00;100828.75;5526056;25;19960;-71
2024/04/22 11:12:54;;;;;;;;;;;;;;;8.25;100.00;100835.13;5525762;25;19931;-70
2024/04/22 11:15:20;;;;;;;;;;;;;;;8.23;100.00;100827.31;5526666;25;19934;-69
2024/04/22 11:17:45;;;;;;;;;;;;;;;8.20;100.00;100817.00;5527163;25;19935;-70
2024/04/22 11:20:11;;;;;;;;;;;;;;;8.14;100.00;100817.59;5529306;26;19935;-66
2024/04/22 11:22:37;;;;;;;;;;;;;;;8.25;100.00;100825.38;5524748;26;20394;-70
2024/04/22 11:25:03;;;;;;;;;;;;;;;8.46;100.00;100811.06;5523695;26;19942;-70
2024/04/22 11:27:32;;;;;;;;;;;;;;;8.61;100.00;100798.94;5525163;25;19927;-69
2024/04/22 11:29:58;;;;;;;;;;;;;;;8.61;100.00;100806.91;5525052;25;20330;-71
2024/04/22 11:32:27;;;;;;;;;;;;;;;8.60;100.00;100823.81;5524646;26;19931;-68
2024/04/22 11:34:53;;;;;;;;;;;;;;;8.41;100.00;100813.34;5525740;26;20278;-72
2024/04/22 11:37:19;;;;;;;;;;;;;;;8.34;100.00;100824.50;5551849;25;19928;-69
2024/04/22 11:39:48;;;;;;;;;;;;;;;8.31;100.00;100821.28;5562481;25;19933;-70
2024/04/22 11:42:13;;;;;;;;;;;;;;;8.35;100.00;100810.25;5565412;25;20365;-67
2024/04/22 11:44:38;;;;;;;;;;;;;;;8.38;100.00;100810.00;5530045;25;19934;-70
2024/04/22 11:47:04;;;;;;;;;;;;;;;8.34;100.00;100792.66;5529035;25;20010;-71
2024/04/22 11:49:29;;;;;;;;;;;;;;;8.34;100.00;100797.97;5563448;25;19929;-70
2024/04/22 11:51:54;;;;;;;;;;;;;;;8.46;100.00;100798.63;5564161;25;19994;-74
2024/04/22 11:54:20;;;;;;;;;;;;;;;8.50;100.00;100812.44;5563387;25;19927;-69
2024/04/22 11:56:45;;;;;;;;;;;;;;;8.48;100.00;100809.09;5562665;25;19933;-75
2024/04/22 11:59:11;;;;;;;;;;;;;;;8.48;100.00;100814.41;5563165;25;19927;-71
2024/04/22 12:01:48;;;;;;;;;;;;;;;8.37;100.00;100805.63;5568274;25;19937;-80
2024/04/22 12:04:13;;;;;;;;;;;;;;;8.53;100.00;100796.22;5571366;25;19927;-70
2024/04/22 12:06:39;;;;;;;;;;;;;;;8.63;100.00;100795.16;5571798;25;19931;-71
2024/04/22 12:09:04;;;;;;;;;;;;;;;8.77;100.00;100783.22;5532262;25;19954;-74
2024/04/22 12:11:30;;;;;;;;;;;;;;;8.75;100.00;100779.88;5564492;25;19933;-71
2024/04/22 12:13:56;;;;;;;;;;;;;;;8.75;100.00;100779.88;5564521;25;20361;-70
2024/04/22 12:16:21;;;;;;;;;;;;;;;8.70;100.00;100774.19;5564287;25;20423;-69
2024/04/22 12:18:46;;;;;;;;;;;;;;;8.70;100.00;100776.84;5563447;25;20330;-69
2024/04/22 12:21:12;;;;;;;;;;;;;;;8.62;100.00;100766.09;5530956;25;19935;-71
2024/04/22 12:23:38;;;;;;;;;;;;;;;8.61;100.00;100756.47;5499541;25;19938;-69
2024/04/22 12:26:03;;;;;;;;;;;;;;;8.65;100.00;100760.50;5528940;25;19994;-69
2024/04/22 12:28:28;;;;;;;;;;;;;;;8.76;100.00;100743.53;5494351;25;19974;-68
2024/04/22 12:30:54;;;;;;;;;;;;;;;8.75;100.00;100745.34;5544574;25;19927;-66
2024/04/22 12:33:19;;;;;;;;;;;;;;;8.75;100.00;100732.06;5541243;25;19928;-68
2024/04/22 12:35:46;;;;;;;;;;;;;;;8.79;100.00;100736.09;5548043;25;19928;-68